sensor_id;sensor_type;location;lat;lon;timestamp;temperature;humidity
32811;DHT22;65470;47.324;8.548;2023-04-29T00:00:36;14.90;99.90
32811;DHT22;65470;47.324;8.548;2023-04-29T00:03:02;14.80;99.90
32811;DHT22;65470;47.324;8.548;2023-04-29T00:05:27;14.90;99.90
32811;DHT22;65470;47.324;8.548;2023-04-29T00:07:53;14.90;99.90
32811;DHT22;65470;47.324;8.548;2023-04-29T00:10:18;15.00;99.90
32811;DHT22;65470;47.324;8.548;2023-04-29T00:12:44;15.00;99.90
32811;DHT22;65470;47.324;8.548;2023-04-29T00:15:10;15.10;99.90
32811;DHT22;65470;47.324;8.548;2023-04-29T00:17:36;15.20;99.90
32811;DHT22;65470;47.324;8.548;2023-04-29T00:20:02;15.20;99.90
32811;DHT22;65470;47.324;8.548;2023-04-29T00:22:27;15.30;99.90
32811;DHT22;65470;47.324;8.548;2023-04-29T00:24:53;15.30;99.90
32811;DHT22;65470;47.324;8.548;2023-04-29T00:27:19;15.30;99.90
32811;DHT22;65470;47.324;8.548;2023-04-29T00:29:44;15.40;99.90
32811;DHT22;65470;47.324;8.548;2023-04-29T00:32:10;15.30;99.90
32811;DHT22;65470;47.324;8.548;2023-04-29T00:34:35;15.40;99.90
32811;DHT22;65470;47.324;8.548;2023-04-29T00:37:01;15.40;99.90
32811;DHT22;65470;47.324;8.548;2023-04-29T00:39:26;15.50;99.90
32811;DHT22;65470;47.324;8.548;2023-04-29T00:41:52;15.50;99.90
32811;DHT22;65470;47.324;8.548;2023-04-29T00:44:18;15.50;99.90
32811;DHT22;65470;47.324;8.548;2023-04-29T00:46:44;15.60;99.90
32811;DHT22;65470;47.324;8.548;2023-04-29T00:49:10;15.50;99.90
32811;DHT22;65470;47.324;8.548;2023-04-29T00:51:37;15.50;99.90
32811;DHT22;65470;47.324;8.548;2023-04-29T00:54:05;15.50;99.90
32811;DHT22;65470;47.324;8.548;2023-04-29T00:56:33;15.50;99.90
32811;DHT22;65470;47.324;8.548;2023-04-29T00:59:01;15.60;99.90
32811;DHT22;65470;47.324;8.548;2023-04-29T01:01:28;15.60;99.90
32811;DHT22;65470;47.324;8.548;2023-04-29T01:03:54;15.70;99.90
32811;DHT22;65470;47.324;8.548;2023-04-29T01:09:13;15.60;99.90
32811;DHT22;65470;47.324;8.548;2023-04-29T01:14:26;15.70;99.90
32811;DHT22;65470;47.324;8.548;2023-04-29T01:16:58;15.70;99.90
32811;DHT22;65470;47.324;8.548;2023-04-29T01:19:51;15.80;99.90
32811;DHT22;65470;47.324;8.548;2023-04-29T01:22:19;15.80;99.90
32811;DHT22;65470;47.324;8.548;2023-04-29T01:24:46;15.70;99.90
32811;DHT22;65470;47.324;8.548;2023-04-29T01:27:33;15.70;99.90
32811;DHT22;65470;47.324;8.548;2023-04-29T01:33:43;15.70;99.90
32811;DHT22;65470;47.324;8.548;2023-04-29T01:39:09;15.80;99.90
32811;DHT22;65470;47.324;8.548;2023-04-29T01:44:37;15.60;99.90
32811;DHT22;65470;47.324;8.548;2023-04-29T01:47:05;15.60;99.90
32811;DHT22;65470;47.324;8.548;2023-04-29T01:49:34;15.50;99.90
32811;DHT22;65470;47.324;8.548;2023-04-29T01:52:00;15.50;99.90
32811;DHT22;65470;47.324;8.548;2023-04-29T01:54:26;15.50;99.90
32811;DHT22;65470;47.324;8.548;2023-04-29T01:56:52;15.50;99.90
32811;DHT22;65470;47.324;8.548;2023-04-29T01:59:17;15.50;99.90
32811;DHT22;65470;47.324;8.548;2023-04-29T02:05:05;15.60;99.90
32811;DHT22;65470;47.324;8.548;2023-04-29T02:07:30;15.50;99.90
32811;DHT22;65470;47.324;8.548;2023-04-29T02:09:56;15.40;99.90
32811;DHT22;65470;47.324;8.548;2023-04-29T02:12:22;15.30;99.90
32811;DHT22;65470;47.324;8.548;2023-04-29T02:14:51;15.30;99.90
32811;DHT22;65470;47.324;8.548;2023-04-29T02:17:17;15.30;99.90
32811;DHT22;65470;47.324;8.548;2023-04-29T02:19:43;15.30;99.90
32811;DHT22;65470;47.324;8.548;2023-04-29T02:22:08;15.20;99.90
32811;DHT22;65470;47.324;8.548;2023-04-29T02:24:37;15.20;99.90
32811;DHT22;65470;47.324;8.548;2023-04-29T02:27:02;15.00;99.90
32811;DHT22;65470;47.324;8.548;2023-04-29T02:29:30;15.00;99.90
32811;DHT22;65470;47.324;8.548;2023-04-29T02:31:56;14.80;99.90
32811;DHT22;65470;47.324;8.548;2023-04-29T02:34:22;14.70;99.90
32811;DHT22;65470;47.324;8.548;2023-04-29T02:36:48;14.70;99.90
32811;DHT22;65470;47.324;8.548;2023-04-29T02:39:14;14.80;99.90
32811;DHT22;65470;47.324;8.548;2023-04-29T02:41:41;14.80;99.90
32811;DHT22;65470;47.324;8.548;2023-04-29T02:44:07;14.80;99.90
32811;DHT22;65470;47.324;8.548;2023-04-29T02:46:32;14.80;99.90
32811;DHT22;65470;47.324;8.548;2023-04-29T02:49:00;14.80;99.90
32811;DHT22;65470;47.324;8.548;2023-04-29T02:51:26;14.90;99.90
32811;DHT22;65470;47.324;8.548;2023-04-29T02:53:52;14.90;99.90
32811;DHT22;65470;47.324;8.548;2023-04-29T02:56:18;15.00;99.90
32811;DHT22;65470;47.324;8.548;2023-04-29T02:58:44;15.00;99.90
32811;DHT22;65470;47.324;8.548;2023-04-29T03:01:10;15.10;99.90
32811;DHT22;65470;47.324;8.548;2023-04-29T03:03:35;15.10;99.90
32811;DHT22;65470;47.324;8.548;2023-04-29T03:06:02;15.00;99.90
32811;DHT22;65470;47.324;8.548;2023-04-29T03:08:27;14.90;99.90
32811;DHT22;65470;47.324;8.548;2023-04-29T03:10:53;14.90;99.90
32811;DHT22;65470;47.324;8.548;2023-04-29T03:13:19;14.90;99.90
32811;DHT22;65470;47.324;8.548;2023-04-29T03:15:45;14.90;99.90
32811;DHT22;65470;47.324;8.548;2023-04-29T03:18:11;15.00;99.90
32811;DHT22;65470;47.324;8.548;2023-04-29T03:20:36;14.80;99.90
32811;DHT22;65470;47.324;8.548;2023-04-29T03:23:02;14.80;99.90
32811;DHT22;65470;47.324;8.548;2023-04-29T03:25:27;14.80;99.90
32811;DHT22;65470;47.324;8.548;2023-04-29T03:27:53;14.80;99.90
32811;DHT22;65470;47.324;8.548;2023-04-29T03:30:19;14.70;99.90
32811;DHT22;65470;47.324;8.548;2023-04-29T03:32:44;14.70;99.90
32811;DHT22;65470;47.324;8.548;2023-04-29T03:35:10;14.70;99.90
32811;DHT22;65470;47.324;8.548;2023-04-29T03:37:36;14.70;99.90
32811;DHT22;65470;47.324;8.548;2023-04-29T03:40:02;14.60;99.90
32811;DHT22;65470;47.324;8.548;2023-04-29T03:42:28;14.70;99.90
32811;DHT22;65470;47.324;8.548;2023-04-29T03:44:54;14.70;99.90
32811;DHT22;65470;47.324;8.548;2023-04-29T03:47:19;14.70;99.90
32811;DHT22;65470;47.324;8.548;2023-04-29T03:49:45;14.70;99.90
32811;DHT22;65470;47.324;8.548;2023-04-29T03:52:11;14.80;99.90
32811;DHT22;65470;47.324;8.548;2023-04-29T03:54:37;14.80;99.90
32811;DHT22;65470;47.324;8.548;2023-04-29T03:57:02;14.80;99.90
32811;DHT22;65470;47.324;8.548;2023-04-29T03:59:29;14.80;99.90
32811;DHT22;65470;47.324;8.548;2023-04-29T04:01:54;14.70;99.90
32811;DHT22;65470;47.324;8.548;2023-04-29T04:04:20;14.60;99.90
32811;DHT22;65470;47.324;8.548;2023-04-29T04:06:46;14.60;99.90
32811;DHT22;65470;47.324;8.548;2023-04-29T04:09:19;14.60;99.90
32811;DHT22;65470;47.324;8.548;2023-04-29T04:11:45;14.60;99.90
32811;DHT22;65470;47.324;8.548;2023-04-29T04:14:10;14.60;99.90
32811;DHT22;65470;47.324;8.548;2023-04-29T04:16:36;14.50;99.90
32811;DHT22;65470;47.324;8.548;2023-04-29T04:19:02;14.40;99.90
32811;DHT22;65470;47.324;8.548;2023-04-29T04:21:28;14.50;99.90
32811;DHT22;65470;47.324;8.548;2023-04-29T04:23:54;14.50;99.90
32811;DHT22;65470;47.324;8.548;2023-04-29T04:26:20;14.50;99.90
32811;DHT22;65470;47.324;8.548;2023-04-29T04:28:46;14.50;99.90
32811;DHT22;65470;47.324;8.548;2023-04-29T04:31:11;14.50;99.90
32811;DHT22;65470;47.324;8.548;2023-04-29T04:33:41;14.50;99.90
32811;DHT22;65470;47.324;8.548;2023-04-29T04:36:06;14.50;99.90
32811;DHT22;65470;47.324;8.548;2023-04-29T04:38:32;14.50;99.90
32811;DHT22;65470;47.324;8.548;2023-04-29T04:40:58;14.50;99.90
32811;DHT22;65470;47.324;8.548;2023-04-29T04:43:24;14.60;99.90
32811;DHT22;65470;47.324;8.548;2023-04-29T04:45:49;14.60;99.90
32811;DHT22;65470;47.324;8.548;2023-04-29T04:48:15;14.60;99.90
32811;DHT22;65470;47.324;8.548;2023-04-29T04:50:41;14.70;99.90
32811;DHT22;65470;47.324;8.548;2023-04-29T04:53:07;14.80;99.90
32811;DHT22;65470;47.324;8.548;2023-04-29T04:55:33;14.80;99.90
32811;DHT22;65470;47.324;8.548;2023-04-29T04:57:59;14.80;99.90
32811;DHT22;65470;47.324;8.548;2023-04-29T05:00:24;14.80;99.90
32811;DHT22;65470;47.324;8.548;2023-04-29T05:02:50;14.80;99.90
32811;DHT22;65470;47.324;8.548;2023-04-29T05:05:16;14.80;99.90
32811;DHT22;65470;47.324;8.548;2023-04-29T05:07:41;14.90;99.90
32811;DHT22;65470;47.324;8.548;2023-04-29T05:10:08;15.00;99.90
32811;DHT22;65470;47.324;8.548;2023-04-29T05:12:34;15.10;99.90
32811;DHT22;65470;47.324;8.548;2023-04-29T05:15:01;15.10;99.90
32811;DHT22;65470;47.324;8.548;2023-04-29T05:17:27;15.20;99.90
32811;DHT22;65470;47.324;8.548;2023-04-29T05:19:52;15.30;99.90
32811;DHT22;65470;47.324;8.548;2023-04-29T05:22:18;15.40;99.90
32811;DHT22;65470;47.324;8.548;2023-04-29T05:24:44;15.40;99.90
32811;DHT22;65470;47.324;8.548;2023-04-29T05:27:09;15.30;99.90
32811;DHT22;65470;47.324;8.548;2023-04-29T05:29:35;15.40;99.90
32811;DHT22;65470;47.324;8.548;2023-04-29T05:32:01;15.60;99.90
32811;DHT22;65470;47.324;8.548;2023-04-29T05:34:26;15.60;99.90
32811;DHT22;65470;47.324;8.548;2023-04-29T05:36:52;15.60;99.90
32811;DHT22;65470;47.324;8.548;2023-04-29T05:39:18;15.70;99.90
32811;DHT22;65470;47.324;8.548;2023-04-29T05:41:43;15.90;99.90
32811;DHT22;65470;47.324;8.548;2023-04-29T05:44:09;16.00;99.90
32811;DHT22;65470;47.324;8.548;2023-04-29T05:46:35;16.00;99.90
32811;DHT22;65470;47.324;8.548;2023-04-29T05:49:01;16.00;99.90
32811;DHT22;65470;47.324;8.548;2023-04-29T05:51:26;16.10;99.90
32811;DHT22;65470;47.324;8.548;2023-04-29T05:53:53;16.20;99.90
32811;DHT22;65470;47.324;8.548;2023-04-29T05:56:19;16.30;99.90
32811;DHT22;65470;47.324;8.548;2023-04-29T05:58:44;16.50;99.90
32811;DHT22;65470;47.324;8.548;2023-04-29T06:01:10;16.70;99.90
32811;DHT22;65470;47.324;8.548;2023-04-29T06:03:36;16.80;99.90
32811;DHT22;65470;47.324;8.548;2023-04-29T06:06:02;16.90;99.90
32811;DHT22;65470;47.324;8.548;2023-04-29T06:08:28;17.00;99.90
32811;DHT22;65470;47.324;8.548;2023-04-29T06:10:54;17.20;99.90
32811;DHT22;65470;47.324;8.548;2023-04-29T06:13:20;17.40;99.90
32811;DHT22;65470;47.324;8.548;2023-04-29T06:15:45;17.60;99.90
32811;DHT22;65470;47.324;8.548;2023-04-29T06:18:11;17.70;99.90
32811;DHT22;65470;47.324;8.548;2023-04-29T06:20:37;17.80;99.90
32811;DHT22;65470;47.324;8.548;2023-04-29T06:23:02;17.90;99.90
32811;DHT22;65470;47.324;8.548;2023-04-29T06:25:29;18.00;99.90
32811;DHT22;65470;47.324;8.548;2023-04-29T06:27:56;18.20;99.90
32811;DHT22;65470;47.324;8.548;2023-04-29T06:30:22;18.20;99.90
32811;DHT22;65470;47.324;8.548;2023-04-29T06:32:47;18.10;99.90
32811;DHT22;65470;47.324;8.548;2023-04-29T06:35:13;17.90;99.90
32811;DHT22;65470;47.324;8.548;2023-04-29T06:37:39;17.80;99.90
32811;DHT22;65470;47.324;8.548;2023-04-29T06:40:05;17.90;99.90
32811;DHT22;65470;47.324;8.548;2023-04-29T06:42:31;18.10;99.90
32811;DHT22;65470;47.324;8.548;2023-04-29T06:44:57;18.30;99.90
32811;DHT22;65470;47.324;8.548;2023-04-29T06:47:22;18.70;99.90
32811;DHT22;65470;47.324;8.548;2023-04-29T06:49:48;19.00;99.90
32811;DHT22;65470;47.324;8.548;2023-04-29T06:52:14;19.10;99.90
32811;DHT22;65470;47.324;8.548;2023-04-29T06:54:40;18.90;99.90
32811;DHT22;65470;47.324;8.548;2023-04-29T06:57:05;18.90;99.90
32811;DHT22;65470;47.324;8.548;2023-04-29T06:59:31;19.30;99.90
32811;DHT22;65470;47.324;8.548;2023-04-29T07:01:57;19.70;99.90
32811;DHT22;65470;47.324;8.548;2023-04-29T07:04:22;20.00;99.90
32811;DHT22;65470;47.324;8.548;2023-04-29T07:06:48;20.40;99.90
32811;DHT22;65470;47.324;8.548;2023-04-29T07:09:14;20.80;99.90
32811;DHT22;65470;47.324;8.548;2023-04-29T07:11:40;20.50;99.90
32811;DHT22;65470;47.324;8.548;2023-04-29T07:14:06;20.00;99.90
32811;DHT22;65470;47.324;8.548;2023-04-29T07:16:32;19.50;99.90
32811;DHT22;65470;47.324;8.548;2023-04-29T07:18:58;19.40;99.90
32811;DHT22;65470;47.324;8.548;2023-04-29T07:21:23;19.60;99.90
32811;DHT22;65470;47.324;8.548;2023-04-29T07:23:49;19.80;99.90
32811;DHT22;65470;47.324;8.548;2023-04-29T07:26:16;19.60;99.90
32811;DHT22;65470;47.324;8.548;2023-04-29T07:28:42;19.60;99.90
32811;DHT22;65470;47.324;8.548;2023-04-29T07:31:08;19.50;99.90
32811;DHT22;65470;47.324;8.548;2023-04-29T07:33:35;19.60;99.90
32811;DHT22;65470;47.324;8.548;2023-04-29T07:36:01;19.30;99.90
32811;DHT22;65470;47.324;8.548;2023-04-29T07:38:26;19.30;99.90
32811;DHT22;65470;47.324;8.548;2023-04-29T07:40:54;19.60;99.90
32811;DHT22;65470;47.324;8.548;2023-04-29T07:43:19;19.90;99.90
32811;DHT22;65470;47.324;8.548;2023-04-29T07:45:46;20.50;99.90
32811;DHT22;65470;47.324;8.548;2023-04-29T07:48:12;21.10;99.90
32811;DHT22;65470;47.324;8.548;2023-04-29T07:50:37;21.40;99.90
32811;DHT22;65470;47.324;8.548;2023-04-29T07:53:03;21.60;99.90
32811;DHT22;65470;47.324;8.548;2023-04-29T07:55:29;21.70;99.90
32811;DHT22;65470;47.324;8.548;2023-04-29T07:57:56;21.70;99.90
32811;DHT22;65470;47.324;8.548;2023-04-29T08:00:22;21.90;99.90
32811;DHT22;65470;47.324;8.548;2023-04-29T08:02:54;21.80;99.90
32811;DHT22;65470;47.324;8.548;2023-04-29T08:05:21;21.60;99.90
32811;DHT22;65470;47.324;8.548;2023-04-29T08:07:47;21.60;99.90
32811;DHT22;65470;47.324;8.548;2023-04-29T08:10:13;21.60;99.90
32811;DHT22;65470;47.324;8.548;2023-04-29T08:12:39;21.70;99.90
32811;DHT22;65470;47.324;8.548;2023-04-29T08:15:05;21.90;99.90
32811;DHT22;65470;47.324;8.548;2023-04-29T08:17:31;22.90;99.90
32811;DHT22;65470;47.324;8.548;2023-04-29T08:19:57;23.70;99.90
32811;DHT22;65470;47.324;8.548;2023-04-29T08:22:22;23.80;99.90
32811;DHT22;65470;47.324;8.548;2023-04-29T08:24:48;24.40;99.90
32811;DHT22;65470;47.324;8.548;2023-04-29T08:27:14;25.60;99.90
32811;DHT22;65470;47.324;8.548;2023-04-29T08:29:40;26.20;98.30
32811;DHT22;65470;47.324;8.548;2023-04-29T08:32:07;25.80;97.90
32811;DHT22;65470;47.324;8.548;2023-04-29T08:34:33;25.40;96.30
32811;DHT22;65470;47.324;8.548;2023-04-29T08:37:01;25.30;96.00
32811;DHT22;65470;47.324;8.548;2023-04-29T08:39:28;25.20;95.50
32811;DHT22;65470;47.324;8.548;2023-04-29T08:41:56;25.50;97.10
32811;DHT22;65470;47.324;8.548;2023-04-29T08:44:21;26.60;94.00
32811;DHT22;65470;47.324;8.548;2023-04-29T08:46:48;27.60;93.30
32811;DHT22;65470;47.324;8.548;2023-04-29T08:49:15;28.60;91.70
32811;DHT22;65470;47.324;8.548;2023-04-29T08:51:40;29.20;86.30
32811;DHT22;65470;47.324;8.548;2023-04-29T08:54:06;29.60;86.50
32811;DHT22;65470;47.324;8.548;2023-04-29T08:56:32;30.50;76.30
32811;DHT22;65470;47.324;8.548;2023-04-29T08:58:59;30.50;76.30
32811;DHT22;65470;47.324;8.548;2023-04-29T09:01:27;30.80;74.50
32811;DHT22;65470;47.324;8.548;2023-04-29T09:04:14;30.70;73.80
32811;DHT22;65470;47.324;8.548;2023-04-29T09:06:42;30.60;70.80
32811;DHT22;65470;47.324;8.548;2023-04-29T09:09:08;30.70;70.10
32811;DHT22;65470;47.324;8.548;2023-04-29T09:11:35;29.90;71.90
32811;DHT22;65470;47.324;8.548;2023-04-29T09:14:01;28.60;74.00
32811;DHT22;65470;47.324;8.548;2023-04-29T09:16:28;28.10;75.40
32811;DHT22;65470;47.324;8.548;2023-04-29T09:18:55;27.10;80.50
32811;DHT22;65470;47.324;8.548;2023-04-29T09:21:28;26.30;84.00
32811;DHT22;65470;47.324;8.548;2023-04-29T09:23:58;26.80;85.30
32811;DHT22;65470;47.324;8.548;2023-04-29T09:26:24;26.60;87.60
32811;DHT22;65470;47.324;8.548;2023-04-29T09:29:06;26.50;88.30
32811;DHT22;65470;47.324;8.548;2023-04-29T09:31:32;27.70;88.50
32811;DHT22;65470;47.324;8.548;2023-04-29T09:33:57;28.20;80.30
32811;DHT22;65470;47.324;8.548;2023-04-29T09:39:11;30.30;72.70
32811;DHT22;65470;47.324;8.548;2023-04-29T09:41:58;30.50;73.80
32811;DHT22;65470;47.324;8.548;2023-04-29T09:44:26;30.40;71.50
32811;DHT22;65470;47.324;8.548;2023-04-29T09:47:00;30.50;69.20
32811;DHT22;65470;47.324;8.548;2023-04-29T09:49:29;30.40;68.90
32811;DHT22;65470;47.324;8.548;2023-04-29T09:51:57;30.70;72.80
32811;DHT22;65470;47.324;8.548;2023-04-29T09:54:25;31.10;73.30
32811;DHT22;65470;47.324;8.548;2023-04-29T09:56:53;31.40;73.10
32811;DHT22;65470;47.324;8.548;2023-04-29T09:59:20;31.80;66.60
32811;DHT22;65470;47.324;8.548;2023-04-29T10:01:48;32.00;65.50
32811;DHT22;65470;47.324;8.548;2023-04-29T10:04:15;31.80;66.00
32811;DHT22;65470;47.324;8.548;2023-04-29T10:06:43;31.70;69.40
32811;DHT22;65470;47.324;8.548;2023-04-29T10:09:13;31.50;64.50
32811;DHT22;65470;47.324;8.548;2023-04-29T10:11:45;31.70;62.90
32811;DHT22;65470;47.324;8.548;2023-04-29T10:14:15;31.60;62.90
32811;DHT22;65470;47.324;8.548;2023-04-29T10:16:58;31.60;62.40
32811;DHT22;65470;47.324;8.548;2023-04-29T10:19:46;31.10;62.50
32811;DHT22;65470;47.324;8.548;2023-04-29T10:22:21;30.00;64.60
32811;DHT22;65470;47.324;8.548;2023-04-29T10:24:52;29.80;69.90
32811;DHT22;65470;47.324;8.548;2023-04-29T10:27:18;30.10;70.30
32811;DHT22;65470;47.324;8.548;2023-04-29T10:29:47;30.60;67.00
32811;DHT22;65470;47.324;8.548;2023-04-29T10:32:14;31.20;63.50
32811;DHT22;65470;47.324;8.548;2023-04-29T10:34:41;31.30;65.40
32811;DHT22;65470;47.324;8.548;2023-04-29T10:37:11;31.70;61.70
32811;DHT22;65470;47.324;8.548;2023-04-29T10:39:52;32.30;61.90
32811;DHT22;65470;47.324;8.548;2023-04-29T10:42:52;32.50;59.30
32811;DHT22;65470;47.324;8.548;2023-04-29T10:45:29;32.70;59.10
32811;DHT22;65470;47.324;8.548;2023-04-29T10:50:29;32.80;60.00
32811;DHT22;65470;47.324;8.548;2023-04-29T10:52:55;32.90;58.30
32811;DHT22;65470;47.324;8.548;2023-04-29T10:55:22;33.40;57.40
32811;DHT22;65470;47.324;8.548;2023-04-29T10:57:48;33.60;59.10
32811;DHT22;65470;47.324;8.548;2023-04-29T11:00:34;33.60;57.90
32811;DHT22;65470;47.324;8.548;2023-04-29T11:03:04;33.00;58.00
32811;DHT22;65470;47.324;8.548;2023-04-29T11:05:32;31.60;60.10
32811;DHT22;65470;47.324;8.548;2023-04-29T11:08:13;30.20;63.50
32811;DHT22;65470;47.324;8.548;2023-04-29T11:10:49;29.00;66.20
32811;DHT22;65470;47.324;8.548;2023-04-29T11:13:24;27.90;71.60
32811;DHT22;65470;47.324;8.548;2023-04-29T11:16:06;26.90;75.10
32811;DHT22;65470;47.324;8.548;2023-04-29T11:18:32;26.20;79.00
32811;DHT22;65470;47.324;8.548;2023-04-29T11:21:19;25.50;82.90
32811;DHT22;65470;47.324;8.548;2023-04-29T11:23:46;24.80;85.00
32811;DHT22;65470;47.324;8.548;2023-04-29T11:26:12;24.50;89.40
32811;DHT22;65470;47.324;8.548;2023-04-29T11:28:40;24.30;91.80
32811;DHT22;65470;47.324;8.548;2023-04-29T11:31:06;23.90;91.20
32811;DHT22;65470;47.324;8.548;2023-04-29T11:33:32;23.60;88.00
32811;DHT22;65470;47.324;8.548;2023-04-29T11:35:58;24.20;92.60
32811;DHT22;65470;47.324;8.548;2023-04-29T11:38:28;25.10;90.10
32811;DHT22;65470;47.324;8.548;2023-04-29T11:40:55;26.50;85.50
32811;DHT22;65470;47.324;8.548;2023-04-29T11:43:22;28.10;74.00
32811;DHT22;65470;47.324;8.548;2023-04-29T11:45:48;29.70;69.60
32811;DHT22;65470;47.324;8.548;2023-04-29T11:48:18;30.80;59.90
32811;DHT22;65470;47.324;8.548;2023-04-29T11:50:49;31.50;62.30
32811;DHT22;65470;47.324;8.548;2023-04-29T11:53:18;32.10;60.60
32811;DHT22;65470;47.324;8.548;2023-04-29T11:55:44;32.80;62.20
32811;DHT22;65470;47.324;8.548;2023-04-29T11:58:11;33.50;57.70
32811;DHT22;65470;47.324;8.548;2023-04-29T12:00:37;33.90;53.60
32811;DHT22;65470;47.324;8.548;2023-04-29T12:03:16;34.00;56.80
32811;DHT22;65470;47.324;8.548;2023-04-29T12:06:01;34.20;56.90
32811;DHT22;65470;47.324;8.548;2023-04-29T12:08:28;34.20;53.00
32811;DHT22;65470;47.324;8.548;2023-04-29T12:10:56;34.40;53.20
32811;DHT22;65470;47.324;8.548;2023-04-29T12:13:23;34.40;51.10
32811;DHT22;65470;47.324;8.548;2023-04-29T12:15:50;34.70;52.80
32811;DHT22;65470;47.324;8.548;2023-04-29T12:18:17;34.70;54.50
32811;DHT22;65470;47.324;8.548;2023-04-29T12:20:46;34.60;54.50
32811;DHT22;65470;47.324;8.548;2023-04-29T12:23:17;34.60;54.30
32811;DHT22;65470;47.324;8.548;2023-04-29T12:26:03;34.70;54.40
32811;DHT22;65470;47.324;8.548;2023-04-29T12:28:29;34.50;51.30
32811;DHT22;65470;47.324;8.548;2023-04-29T12:30:56;33.00;53.70
32811;DHT22;65470;47.324;8.548;2023-04-29T12:33:27;31.40;56.60
32811;DHT22;65470;47.324;8.548;2023-04-29T12:35:55;30.10;58.30
32811;DHT22;65470;47.324;8.548;2023-04-29T12:38:25;28.90;61.60
32811;DHT22;65470;47.324;8.548;2023-04-29T12:40:58;28.00;64.40
32811;DHT22;65470;47.324;8.548;2023-04-29T12:43:29;27.30;63.80
32811;DHT22;65470;47.324;8.548;2023-04-29T12:46:05;26.70;65.30
32811;DHT22;65470;47.324;8.548;2023-04-29T12:48:35;26.20;67.30
32811;DHT22;65470;47.324;8.548;2023-04-29T12:51:11;25.60;69.80
32811;DHT22;65470;47.324;8.548;2023-04-29T12:53:37;24.90;73.30
32811;DHT22;65470;47.324;8.548;2023-04-29T12:56:04;24.40;73.00
32811;DHT22;65470;47.324;8.548;2023-04-29T12:58:31;23.90;75.30
32811;DHT22;65470;47.324;8.548;2023-04-29T13:00:58;23.70;76.50
32811;DHT22;65470;47.324;8.548;2023-04-29T13:03:23;23.30;78.10
32811;DHT22;65470;47.324;8.548;2023-04-29T13:05:49;23.10;81.10
32811;DHT22;65470;47.324;8.548;2023-04-29T13:08:17;23.00;86.30
32811;DHT22;65470;47.324;8.548;2023-04-29T13:10:43;22.80;86.90
32811;DHT22;65470;47.324;8.548;2023-04-29T13:13:08;22.90;88.50
32811;DHT22;65470;47.324;8.548;2023-04-29T13:15:35;22.90;90.00
32811;DHT22;65470;47.324;8.548;2023-04-29T13:18:04;23.00;90.80
32811;DHT22;65470;47.324;8.548;2023-04-29T13:20:30;23.10;90.50
32811;DHT22;65470;47.324;8.548;2023-04-29T13:22:56;23.20;89.80
32811;DHT22;65470;47.324;8.548;2023-04-29T13:25:22;23.40;88.40
32811;DHT22;65470;47.324;8.548;2023-04-29T13:27:48;23.50;87.30
32811;DHT22;65470;47.324;8.548;2023-04-29T13:30:14;23.60;85.10
32811;DHT22;65470;47.324;8.548;2023-04-29T13:32:40;23.80;86.00
32811;DHT22;65470;47.324;8.548;2023-04-29T13:35:07;24.00;82.20
32811;DHT22;65470;47.324;8.548;2023-04-29T13:37:33;24.40;80.00
32811;DHT22;65470;47.324;8.548;2023-04-29T13:39:58;24.70;75.20
32811;DHT22;65470;47.324;8.548;2023-04-29T13:42:24;24.90;77.60
32811;DHT22;65470;47.324;8.548;2023-04-29T13:44:50;25.30;77.80
32811;DHT22;65470;47.324;8.548;2023-04-29T13:47:16;25.60;78.00
32811;DHT22;65470;47.324;8.548;2023-04-29T13:49:42;25.80;78.60
32811;DHT22;65470;47.324;8.548;2023-04-29T13:52:11;26.00;76.70
32811;DHT22;65470;47.324;8.548;2023-04-29T13:54:37;26.30;78.50
32811;DHT22;65470;47.324;8.548;2023-04-29T13:57:03;26.40;74.20
32811;DHT22;65470;47.324;8.548;2023-04-29T13:59:32;26.70;71.20
32811;DHT22;65470;47.324;8.548;2023-04-29T14:01:59;26.70;71.10
32811;DHT22;65470;47.324;8.548;2023-04-29T14:04:26;26.60;69.30
32811;DHT22;65470;47.324;8.548;2023-04-29T14:06:53;26.40;68.20
32811;DHT22;65470;47.324;8.548;2023-04-29T14:09:19;26.50;68.70
32811;DHT22;65470;47.324;8.548;2023-04-29T14:11:46;26.60;69.20
32811;DHT22;65470;47.324;8.548;2023-04-29T14:14:12;26.70;67.50
32811;DHT22;65470;47.324;8.548;2023-04-29T14:16:38;26.60;66.00
32811;DHT22;65470;47.324;8.548;2023-04-29T14:19:04;26.70;64.10
32811;DHT22;65470;47.324;8.548;2023-04-29T14:21:30;26.70;65.10
32811;DHT22;65470;47.324;8.548;2023-04-29T14:23:57;26.80;64.20
32811;DHT22;65470;47.324;8.548;2023-04-29T14:26:24;26.80;62.80
32811;DHT22;65470;47.324;8.548;2023-04-29T14:28:49;26.80;63.20
32811;DHT22;65470;47.324;8.548;2023-04-29T14:31:25;26.50;65.70
32811;DHT22;65470;47.324;8.548;2023-04-29T14:33:55;26.20;63.80
32811;DHT22;65470;47.324;8.548;2023-04-29T14:36:21;26.10;64.50
32811;DHT22;65470;47.324;8.548;2023-04-29T14:38:46;26.30;64.80
32811;DHT22;65470;47.324;8.548;2023-04-29T14:41:12;26.40;63.80
32811;DHT22;65470;47.324;8.548;2023-04-29T14:43:38;26.20;61.90
32811;DHT22;65470;47.324;8.548;2023-04-29T14:46:04;26.10;61.90
32811;DHT22;65470;47.324;8.548;2023-04-29T14:48:30;25.90;60.70
32811;DHT22;65470;47.324;8.548;2023-04-29T14:50:56;25.90;61.80
32811;DHT22;65470;47.324;8.548;2023-04-29T14:53:22;25.80;59.30
32811;DHT22;65470;47.324;8.548;2023-04-29T14:55:50;25.70;60.60
32811;DHT22;65470;47.324;8.548;2023-04-29T14:58:16;25.80;65.10
32811;DHT22;65470;47.324;8.548;2023-04-29T15:00:42;25.60;63.80
32811;DHT22;65470;47.324;8.548;2023-04-29T15:03:08;25.50;61.10
32811;DHT22;65470;47.324;8.548;2023-04-29T15:05:34;25.30;60.50
32811;DHT22;65470;47.324;8.548;2023-04-29T15:08:00;25.10;60.50
32811;DHT22;65470;47.324;8.548;2023-04-29T15:10:27;24.90;61.50
32811;DHT22;65470;47.324;8.548;2023-04-29T15:12:53;24.80;61.60
32811;DHT22;65470;47.324;8.548;2023-04-29T15:15:19;24.50;60.10
32811;DHT22;65470;47.324;8.548;2023-04-29T15:17:45;24.30;60.60
32811;DHT22;65470;47.324;8.548;2023-04-29T15:20:11;24.40;63.20
32811;DHT22;65470;47.324;8.548;2023-04-29T15:22:37;24.50;61.30
32811;DHT22;65470;47.324;8.548;2023-04-29T15:25:04;24.30;63.20
32811;DHT22;65470;47.324;8.548;2023-04-29T15:27:30;24.50;61.20
32811;DHT22;65470;47.324;8.548;2023-04-29T15:29:56;24.40;62.00
32811;DHT22;65470;47.324;8.548;2023-04-29T15:32:22;24.30;63.80
32811;DHT22;65470;47.324;8.548;2023-04-29T15:34:49;24.40;63.50
32811;DHT22;65470;47.324;8.548;2023-04-29T15:37:15;24.40;64.30
32811;DHT22;65470;47.324;8.548;2023-04-29T15:39:40;24.30;63.80
32811;DHT22;65470;47.324;8.548;2023-04-29T15:42:06;24.10;62.80
32811;DHT22;65470;47.324;8.548;2023-04-29T15:44:33;24.10;65.20
32811;DHT22;65470;47.324;8.548;2023-04-29T15:46:59;24.20;66.70
32811;DHT22;65470;47.324;8.548;2023-04-29T15:49:24;24.40;64.60
32811;DHT22;65470;47.324;8.548;2023-04-29T15:51:50;24.50;65.70
32811;DHT22;65470;47.324;8.548;2023-04-29T15:54:16;24.50;63.60